Time;durP1;ratioP1;P1;durP2;ratioP2;P2;SDS_P1;SDS_P2;PMS_P1;PMS_P2;Temp;Humidity;BMP_temperature;BMP_pressure;BME280_temperature;BME280_humidity;BME280_pressure;Samples;Min_cycle;Max_cycle;Signal;HPM_P1;HPM_P2
2022/03/11 00:01:13;;;;;;;12.43;5.77;;;1.70;57.80;;;;;;5022698;28;20270;-72
2022/03/11 00:03:39;;;;;;;12.67;6.73;;;1.80;57.90;;;;;;5008161;28;20197;-72
2022/03/11 00:06:04;;;;;;;9.20;6.57;;;1.80;58.00;;;;;;5011635;28;20207;-74
2022/03/11 00:08:30;;;;;;;10.90;6.10;;;1.70;57.80;;;;;;5017622;28;20191;-74
2022/03/11 00:10:55;;;;;;;8.53;6.20;;;1.70;57.80;;;;;;5011342;28;20223;-73
2022/03/11 00:13:21;;;;;;;9.60;6.17;;;1.60;58.30;;;;;;5019383;28;20229;-72
2022/03/11 00:15:46;;;;;;;8.03;4.87;;;1.50;58.20;;;;;;5010980;28;20198;-75
2022/03/11 00:18:13;;;;;;;10.40;7.00;;;1.70;58.30;;;;;;5016809;28;20277;-72
2022/03/11 00:20:39;;;;;;;8.83;6.70;;;1.60;58.60;;;;;;5017019;28;20206;-73
2022/03/11 00:23:04;;;;;;;8.83;6.40;;;1.50;58.60;;;;;;5007361;28;20199;-70
2022/03/11 00:25:31;;;;;;;12.03;6.73;;;1.50;58.70;;;;;;5015187;28;20232;-70
2022/03/11 00:27:59;;;;;;;7.63;4.57;;;1.60;58.30;;;;;;5022923;28;20718;-65
2022/03/11 00:30:25;;;;;;;8.73;6.27;;;1.50;58.10;;;;;;5017227;28;20775;-68
2022/03/11 00:32:50;;;;;;;8.97;6.10;;;1.40;58.50;;;;;;5023715;28;20231;-67
2022/03/11 00:35:16;;;;;;;11.17;6.67;;;1.50;58.20;;;;;;5015418;28;20733;-67
2022/03/11 00:37:41;;;;;;;10.73;7.17;;;1.40;58.40;;;;;;5002322;28;20200;-66
2022/03/11 00:40:08;;;;;;;6.73;5.10;;;1.30;58.90;;;;;;5014666;28;20265;-69
2022/03/11 00:42:34;;;;;;;10.57;7.17;;;1.50;58.60;;;;;;5024628;28;20203;-69
2022/03/11 00:45:00;;;;;;;10.47;6.50;;;1.50;58.20;;;;;;5014003;28;20195;-66
2022/03/11 00:47:26;;;;;;;12.33;7.03;;;1.40;58.40;;;;;;5019724;28;20194;-67
2022/03/11 00:49:52;;;;;;;9.17;6.90;;;1.40;58.40;;;;;;5021929;28;20214;-68
2022/03/11 00:52:17;;;;;;;9.10;5.73;;;1.40;58.40;;;;;;5018631;28;20183;-68
2022/03/11 00:54:43;;;;;;;13.73;6.80;;;1.40;58.30;;;;;;5005959;28;20670;-68
2022/03/11 00:57:08;;;;;;;15.93;7.00;;;1.40;58.50;;;;;;5021889;28;20207;-68
2022/03/11 00:59:34;;;;;;;11.23;6.90;;;1.30;58.50;;;;;;5018783;28;20299;-69
2022/03/11 01:01:59;;;;;;;11.50;6.67;;;1.30;58.60;;;;;;5019585;28;20274;-67
2022/03/11 01:04:25;;;;;;;11.40;6.33;;;1.30;58.50;;;;;;5008246;28;20557;-68
2022/03/11 01:06:51;;;;;;;11.63;6.70;;;1.30;58.70;;;;;;5018952;28;20191;-68
2022/03/11 01:09:16;;;;;;;9.83;6.33;;;1.20;58.20;;;;;;5006513;28;20198;-69
2022/03/11 01:11:41;;;;;;;9.40;5.67;;;1.20;58.40;;;;;;5015897;28;20184;-73
2022/03/11 01:14:07;;;;;;;10.57;6.07;;;1.30;58.40;;;;;;5005995;28;20210;-75
2022/03/11 01:16:34;;;;;;;8.83;6.50;;;1.30;58.10;;;;;;5017123;28;20235;-76
2022/03/11 01:18:59;;;;;;;11.47;6.43;;;1.50;58.00;;;;;;5004060;28;20225;-76
2022/03/11 01:21:25;;;;;;;14.90;6.67;;;1.60;57.70;;;;;;5022524;28;20649;-77
2022/03/11 01:23:50;;;;;;;9.60;6.57;;;1.50;58.10;;;;;;5006390;28;20202;-73
2022/03/11 01:26:16;;;;;;;10.77;6.37;;;1.60;57.50;;;;;;5004113;28;20232;-75
2022/03/11 01:28:42;;;;;;;10.23;6.80;;;1.60;57.50;;;;;;5006327;28;20491;-75
2022/03/11 01:31:12;;;;;;;10.77;6.03;;;1.50;57.40;;;;;;5011458;28;20207;-75
2022/03/11 01:33:42;;;;;;;10.00;6.33;;;1.40;57.60;;;;;;5012154;28;20195;-73
2022/03/11 01:36:09;;;;;;;7.13;5.77;;;1.40;57.80;;;;;;5022363;28;20222;-73
2022/03/11 01:38:35;;;;;;;7.20;5.73;;;1.40;58.10;;;;;;5008855;28;20188;-77
2022/03/11 01:41:01;;;;;;;9.40;6.87;;;1.50;57.50;;;;;;5010596;28;20614;-74
2022/03/11 01:43:29;;;;;;;9.50;7.17;;;1.30;57.40;;;;;;5015901;28;20566;-74
2022/03/11 01:45:56;;;;;;;9.83;6.20;;;1.20;57.80;;;;;;5011436;28;20291;-73
2022/03/11 01:48:22;;;;;;;11.43;6.33;;;1.20;58.50;;;;;;5016189;28;20195;-72
2022/03/11 01:50:48;;;;;;;12.70;6.47;;;1.20;58.40;;;;;;5014123;28;20809;-72
2022/03/11 01:53:14;;;;;;;8.57;6.73;;;1.30;58.10;;;;;;5010523;28;20185;-74
2022/03/11 01:55:40;;;;;;;11.77;6.13;;;1.10;58.10;;;;;;5013375;28;20676;-72
2022/03/11 01:58:06;;;;;;;10.63;6.30;;;1.00;58.30;;;;;;5014586;28;20609;-74
2022/03/11 02:00:35;;;;;;;9.77;6.37;;;1.00;58.40;;;;;;5014044;28;20225;-73
2022/03/11 02:03:01;;;;;;;14.80;7.37;;;1.00;58.60;;;;;;5011241;28;20954;-74
2022/03/11 02:05:28;;;;;;;13.87;6.93;;;0.90;58.90;;;;;;5012507;28;20279;-78
2022/03/11 02:07:54;;;;;;;14.17;7.60;;;0.80;58.80;;;;;;5013103;28;20271;-77
2022/03/11 02:10:20;;;;;;;11.67;7.23;;;0.90;58.90;;;;;;5011493;28;20299;-77
2022/03/11 02:12:45;;;;;;;10.03;7.00;;;0.90;58.90;;;;;;5013535;28;20804;-76
2022/03/11 02:15:11;;;;;;;11.87;6.87;;;0.80;58.60;;;;;;5012929;28;20280;-85
2022/03/11 02:17:36;;;;;;;12.40;7.37;;;0.90;58.60;;;;;;5017254;28;20211;-82
2022/03/11 02:20:03;;;;;;;11.43;7.00;;;0.90;58.60;;;;;;5014806;28;20294;-82
2022/03/11 02:22:35;;;;;;;9.50;6.80;;;0.90;59.00;;;;;;5015832;28;20238;-81
2022/03/11 02:25:01;;;;;;;9.83;5.97;;;0.90;58.70;;;;;;5010418;28;20204;-76
2022/03/11 02:27:26;;;;;;;9.63;6.80;;;1.00;58.50;;;;;;5015663;28;20229;-77
2022/03/11 02:29:51;;;;;;;8.03;5.77;;;0.80;58.70;;;;;;5014744;28;20213;-80
2022/03/11 02:32:17;;;;;;;15.57;7.63;;;0.90;58.90;;;;;;5015699;28;20590;-80
2022/03/11 02:34:42;;;;;;;9.07;7.47;;;0.70;58.70;;;;;;4996194;28;20293;-80
2022/03/11 02:37:11;;;;;;;6.97;5.50;;;0.70;59.70;;;;;;5012415;28;20206;-76
2022/03/11 02:39:37;;;;;;;16.30;8.37;;;0.80;58.80;;;;;;5013724;28;20241;-81
2022/03/11 02:42:04;;;;;;;13.67;7.63;;;0.60;59.00;;;;;;5015441;28;20206;-78
2022/03/11 02:44:31;;;;;;;12.77;8.53;;;0.60;59.60;;;;;;5012935;28;20211;-83
2022/03/11 02:46:59;;;;;;;11.60;8.40;;;0.50;59.90;;;;;;5012871;28;20207;-73
2022/03/11 02:49:25;;;;;;;8.87;6.23;;;0.60;59.70;;;;;;5012033;28;20298;-78
2022/03/11 02:51:51;;;;;;;15.50;8.17;;;0.50;59.80;;;;;;5012736;28;20198;-78
2022/03/11 02:54:17;;;;;;;14.07;7.97;;;0.60;59.60;;;;;;5008810;28;20552;-79
2022/03/11 02:56:42;;;;;;;15.23;8.23;;;0.50;59.70;;;;;;5015199;28;20233;-78
2022/03/11 02:59:07;;;;;;;11.87;7.93;;;0.40;60.40;;;;;;5012259;28;20658;-77
2022/03/11 03:01:33;;;;;;;12.67;8.13;;;0.30;60.20;;;;;;5013088;28;20176;-77
2022/03/11 03:03:58;;;;;;;13.80;7.80;;;0.30;60.30;;;;;;5022603;28;20184;-77
2022/03/11 03:06:24;;;;;;;10.40;7.33;;;0.30;60.50;;;;;;5009741;28;20212;-78
2022/03/11 03:08:49;;;;;;;10.57;7.30;;;0.40;60.10;;;;;;5008961;28;20289;-80
2022/03/11 03:11:15;;;;;;;12.40;8.17;;;0.30;60.10;;;;;;5014044;28;20200;-80
2022/03/11 03:13:40;;;;;;;11.30;7.90;;;0.30;60.20;;;;;;5004849;28;20992;-78
2022/03/11 03:16:06;;;;;;;14.63;7.53;;;0.20;60.40;;;;;;5018504;28;20215;-78
2022/03/11 03:18:31;;;;;;;11.80;8.27;;;0.30;60.60;;;;;;5004876;28;20196;-75
2022/03/11 03:20:57;;;;;;;13.87;6.97;;;0.20;61.00;;;;;;5013874;28;20925;-76
2022/03/11 03:23:25;;;;;;;13.43;8.77;;;0.20;60.90;;;;;;5004632;28;20191;-76
2022/03/11 03:25:51;;;;;;;12.80;7.87;;;0.30;60.40;;;;;;5002489;28;20258;-77
2022/03/11 03:28:16;;;;;;;11.77;7.07;;;0.20;60.50;;;;;;5012090;28;20647;-79
2022/03/11 03:30:42;;;;;;;15.53;8.33;;;0.20;60.30;;;;;;5008663;28;20604;-76
2022/03/11 03:33:07;;;;;;;15.63;8.27;;;0.20;60.40;;;;;;5009138;28;20211;-76
2022/03/11 03:35:34;;;;;;;13.60;8.03;;;0.10;60.60;;;;;;5004641;28;20212;-77
2022/03/11 03:37:59;;;;;;;10.67;6.77;;;0.10;60.70;;;;;;5011677;28;20229;-78
2022/03/11 03:40:25;;;;;;;12.93;7.60;;;0.10;60.70;;;;;;5004659;28;20188;-77
2022/03/11 03:42:50;;;;;;;19.27;9.50;;;0.20;60.60;;;;;;5003455;28;20203;-77
2022/03/11 03:45:16;;;;;;;12.73;8.07;;;0.10;61.10;;;;;;5011588;28;20195;-77
2022/03/11 03:47:41;;;;;;;13.60;8.10;;;0.00;60.80;;;;;;5013788;28;20735;-76
2022/03/11 03:50:07;;;;;;;12.23;7.17;;;-0.10;61.30;;;;;;5021080;28;20289;-77
2022/03/11 03:52:33;;;;;;;14.93;7.90;;;0.00;61.20;;;;;;5008842;28;20204;-77
2022/03/11 03:54:59;;;;;;;12.43;7.53;;;-0.10;61.20;;;;;;5012417;28;20191;-78
2022/03/11 03:57:26;;;;;;;12.03;7.57;;;-0.10;61.30;;;;;;5018922;28;20531;-77
2022/03/11 03:59:52;;;;;;;9.57;6.80;;;0.00;61.30;;;;;;5007893;28;20757;-77
2022/03/11 04:02:17;;;;;;;9.43;7.57;;;0.10;60.80;;;;;;5007204;28;20290;-78
2022/03/11 04:04:43;;;;;;;14.70;9.03;;;0.00;61.30;;;;;;5013744;28;20702;-77
2022/03/11 04:07:09;;;;;;;14.60;7.33;;;0.00;61.10;;;;;;5015645;28;20229;-78
2022/03/11 04:09:34;;;;;;;14.63;8.07;;;0.00;61.30;;;;;;5011418;28;20215;-77
2022/03/11 04:12:00;;;;;;;11.60;8.27;;;-0.10;61.20;;;;;;5013429;28;20747;-78
2022/03/11 04:14:27;;;;;;;12.97;7.43;;;-0.10;61.20;;;;;;5013184;28;20212;-78
2022/03/11 04:16:52;;;;;;;10.97;7.40;;;-0.20;61.80;;;;;;5013126;28;20281;-76
2022/03/11 04:19:18;;;;;;;12.57;8.30;;;-0.30;62.00;;;;;;5011735;28;20660;-78
2022/03/11 04:21:43;;;;;;;11.67;6.93;;;-0.20;61.80;;;;;;5004924;28;20192;-76
2022/03/11 04:24:13;;;;;;;10.37;7.27;;;-0.20;62.20;;;;;;5014390;28;20199;-77
2022/03/11 04:26:43;;;;;;;10.47;8.03;;;-0.30;62.10;;;;;;5007783;28;20263;-77
2022/03/11 04:29:09;;;;;;;11.47;6.27;;;-0.30;61.80;;;;;;5006125;28;20215;-78
2022/03/11 04:31:34;;;;;;;12.77;7.30;;;-0.30;62.00;;;;;;5015208;28;20210;-79
2022/03/11 04:34:01;;;;;;;10.50;6.87;;;-0.30;62.00;;;;;;5016064;28;20276;-77
2022/03/11 04:36:28;;;;;;;10.07;7.20;;;-0.30;61.90;;;;;;5022618;28;20566;-79
2022/03/11 04:38:53;;;;;;;12.10;7.87;;;-0.30;62.10;;;;;;5019884;28;20246;-79
2022/03/11 04:41:19;;;;;;;13.03;7.90;;;-0.40;62.50;;;;;;5026130;28;20351;-74
2022/03/11 04:43:45;;;;;;;13.43;8.13;;;-0.50;62.40;;;;;;5012940;28;20209;-75
2022/03/11 04:46:10;;;;;;;13.27;8.03;;;-0.50;62.70;;;;;;5027924;28;20176;-75
2022/03/11 04:48:36;;;;;;;10.60;6.50;;;-0.50;62.70;;;;;;5023599;28;20202;-76
2022/03/11 04:51:04;;;;;;;11.97;7.93;;;-0.50;63.00;;;;;;5027432;28;20256;-76
2022/03/11 04:53:30;;;;;;;18.27;8.33;;;-0.50;63.00;;;;;;5018450;28;20458;-76
2022/03/11 04:55:55;;;;;;;13.40;7.17;;;-0.60;62.80;;;;;;5018318;28;20540;-76
2022/03/11 04:58:21;;;;;;;14.50;7.93;;;-0.50;62.90;;;;;;5015346;28;20207;-76
2022/03/11 05:00:46;;;;;;;10.43;7.67;;;-0.40;62.30;;;;;;5015893;28;20772;-80
2022/03/11 05:03:13;;;;;;;14.30;6.93;;;-0.40;62.50;;;;;;5004962;28;20186;-83
2022/03/11 05:05:38;;;;;;;11.57;7.37;;;-0.50;62.60;;;;;;5017979;28;20241;-83
2022/03/11 05:08:04;;;;;;;16.17;8.50;;;-0.50;62.60;;;;;;5016581;28;20204;-83
2022/03/11 05:10:29;;;;;;;16.57;6.97;;;-0.60;63.00;;;;;;5021884;28;20289;-80
2022/03/11 05:12:55;;;;;;;10.20;7.37;;;-0.60;63.50;;;;;;5011829;28;20198;-80
2022/03/11 05:15:21;;;;;;;13.13;8.37;;;-0.60;62.80;;;;;;5015805;28;20245;-81
2022/03/11 05:17:46;;;;;;;14.97;7.50;;;-0.60;63.00;;;;;;5006829;28;20266;-81
2022/03/11 05:20:12;;;;;;;10.30;6.43;;;-0.70;63.20;;;;;;5019741;28;20206;-81
2022/03/11 05:22:38;;;;;;;10.77;7.93;;;-0.60;62.80;;;;;;5015329;28;20245;-80
2022/03/11 05:25:04;;;;;;;11.73;7.27;;;-0.70;62.80;;;;;;5015208;28;20212;-79
2022/03/11 05:27:29;;;;;;;16.07;7.60;;;-0.70;63.10;;;;;;5020073;28;20209;-79
2022/03/11 05:29:55;;;;;;;15.43;7.87;;;-0.70;63.50;;;;;;5007783;28;20697;-79
2022/03/11 05:32:20;;;;;;;11.17;7.03;;;-0.70;63.30;;;;;;5005999;28;20218;-80
2022/03/11 05:34:47;;;;;;;13.87;8.60;;;-0.70;63.30;;;;;;5015480;28;20208;-80
2022/03/11 05:37:13;;;;;;;12.80;8.60;;;-0.70;62.70;;;;;;5013362;28;20219;-80
2022/03/11 05:39:38;;;;;;;9.77;6.63;;;-0.60;63.30;;;;;;5013734;28;20741;-79
2022/03/11 05:42:04;;;;;;;10.53;6.80;;;-0.60;62.10;;;;;;5017686;28;20201;-86
2022/03/11 05:44:30;;;;;;;12.83;7.17;;;-0.60;62.00;;;;;;5015942;28;20259;-77
2022/03/11 05:46:59;;;;;;;12.00;8.17;;;-0.70;62.80;;;;;;5015348;28;20199;-76
2022/03/11 05:49:26;;;;;;;12.57;6.83;;;-0.70;62.90;;;;;;5004168;28;20216;-78
2022/03/11 05:51:52;;;;;;;14.37;8.53;;;-0.60;62.60;;;;;;5008324;28;20198;-80
2022/03/11 05:54:17;;;;;;;13.03;7.87;;;-0.70;63.00;;;;;;5005204;28;20295;-77
2022/03/11 05:56:43;;;;;;;13.67;8.50;;;-0.70;62.70;;;;;;5016932;28;20308;-76
2022/03/11 05:59:08;;;;;;;18.30;8.77;;;-0.70;63.00;;;;;;5018829;28;20563;-78
2022/03/11 06:01:35;;;;;;;10.30;7.47;;;-0.80;63.10;;;;;;5018682;28;20248;-76
2022/03/11 06:04:01;;;;;;;13.50;8.77;;;-0.70;63.40;;;;;;5020075;28;20202;-77
2022/03/11 06:06:27;;;;;;;14.37;8.10;;;-0.70;62.80;;;;;;5010588;28;20273;-80
2022/03/11 06:08:53;;;;;;;11.73;7.73;;;-0.70;62.90;;;;;;5014388;28;20297;-76
2022/03/11 06:11:19;;;;;;;10.60;7.33;;;-0.70;63.10;;;;;;5015616;28;20274;-75
2022/03/11 06:13:44;;;;;;;15.90;8.00;;;-0.60;62.40;;;;;;5011071;28;20205;-76
2022/03/11 06:16:10;;;;;;;12.00;7.57;;;-0.70;63.10;;;;;;5013160;28;20206;-77
2022/03/11 06:18:35;;;;;;;11.70;7.37;;;-0.60;62.70;;;;;;5012341;28;20195;-76
2022/03/11 06:21:01;;;;;;;12.77;7.83;;;-0.60;62.40;;;;;;5014616;28;20206;-75
2022/03/11 06:23:26;;;;;;;11.17;8.20;;;-0.70;62.40;;;;;;5022973;28;20623;-75
2022/03/11 06:25:52;;;;;;;11.73;7.43;;;-0.70;63.60;;;;;;5007122;28;20243;-75
2022/03/11 06:28:18;;;;;;;14.27;8.80;;;-0.70;62.90;;;;;;4986052;28;20243;-76
2022/03/11 06:30:46;;;;;;;12.77;7.70;;;-0.60;62.60;;;;;;4981845;28;20677;-73
2022/03/11 06:33:12;;;;;;;8.73;7.53;;;-0.60;62.20;;;;;;4990675;28;20225;-73
2022/03/11 06:35:37;;;;;;;15.23;7.77;;;-0.50;62.40;;;;;;4986150;28;20725;-73
2022/03/11 06:38:03;;;;;;;11.90;7.40;;;-0.50;62.30;;;;;;4994680;28;20222;-75
2022/03/11 06:40:29;;;;;;;13.83;8.17;;;-0.40;61.90;;;;;;4985465;28;20200;-75
2022/03/11 06:42:54;;;;;;;13.63;7.90;;;-0.30;61.50;;;;;;4984687;28;20267;-76
2022/03/11 06:45:20;;;;;;;14.00;8.87;;;-0.40;61.60;;;;;;4989449;28;20234;-75
2022/03/11 06:47:46;;;;;;;14.10;7.67;;;-0.40;61.60;;;;;;4984568;28;20712;-76
2022/03/11 06:50:13;;;;;;;10.17;7.57;;;-0.40;61.60;;;;;;4985635;28;20222;-76
2022/03/11 06:52:39;;;;;;;10.30;8.23;;;-0.40;61.70;;;;;;4982992;28;20223;-77
2022/03/11 06:55:05;;;;;;;12.10;7.47;;;-0.40;62.20;;;;;;4991612;28;20200;-77
2022/03/11 06:57:31;;;;;;;17.07;8.50;;;-0.30;61.60;;;;;;4992885;28;20207;-77
2022/03/11 06:59:57;;;;;;;13.30;7.93;;;-0.20;61.50;;;;;;4995263;28;20224;-76
2022/03/11 07:02:23;;;;;;;13.60;8.87;;;-0.10;61.60;;;;;;4996693;28;20198;-76
2022/03/11 07:04:48;;;;;;;14.60;8.23;;;-0.20;61.50;;;;;;4989728;28;20697;-76
2022/03/11 07:07:14;;;;;;;11.90;7.00;;;0.00;61.50;;;;;;4994578;28;20214;-76
2022/03/11 07:09:39;;;;;;;10.77;6.60;;;0.10;60.40;;;;;;4996848;28;20195;-76
2022/03/11 07:12:05;;;;;;;16.87;8.60;;;0.10;60.00;;;;;;4993823;28;20191;-76
2022/03/11 07:14:38;;;;;;;16.70;9.63;;;0.10;59.90;;;;;;4985353;28;20174;-76
2022/03/11 07:17:05;;;;;;;13.53;8.13;;;0.10;60.30;;;;;;4995201;28;20223;-76
2022/03/11 07:19:31;;;;;;;17.50;8.83;;;0.20;60.40;;;;;;4990070;28;20192;-76
2022/03/11 07:21:58;;;;;;;16.97;9.07;;;0.30;59.70;;;;;;4987574;28;20200;-77
2022/03/11 07:24:24;;;;;;;16.93;7.87;;;0.20;59.60;;;;;;4996569;28;20259;-77
2022/03/11 07:26:50;;;;;;;12.77;7.57;;;0.30;59.60;;;;;;4983324;28;20322;-79
2022/03/11 07:29:16;;;;;;;17.30;8.17;;;0.40;59.10;;;;;;4985056;28;20272;-66
2022/03/11 07:31:42;;;;;;;13.57;8.83;;;0.50;58.80;;;;;;4992134;28;20314;-69
2022/03/11 07:34:07;;;;;;;14.73;8.80;;;0.40;59.00;;;;;;4984984;28;20181;-73
2022/03/11 07:36:34;;;;;;;14.27;5.93;;;0.40;58.70;;;;;;4982776;28;20238;-73
2022/03/11 07:39:01;;;;;;;14.00;7.87;;;0.50;57.80;;;;;;4992068;28;20655;-72
2022/03/11 07:41:26;;;;;;;12.27;8.60;;;0.60;57.90;;;;;;4986360;28;20650;-73
2022/03/11 07:43:52;;;;;;;17.47;8.50;;;0.60;57.60;;;;;;4985197;28;20204;-74
2022/03/11 07:46:17;;;;;;;14.27;8.87;;;0.70;57.70;;;;;;4990308;28;20191;-80
2022/03/11 07:48:44;;;;;;;11.23;8.50;;;0.70;57.80;;;;;;4994995;28;20225;-78
2022/03/11 07:51:10;;;;;;;19.53;9.80;;;0.70;58.10;;;;;;4987970;28;20189;-74
2022/03/11 07:53:36;;;;;;;19.17;9.77;;;0.80;57.80;;;;;;4989340;28;20201;-73
2022/03/11 07:56:07;;;;;;;15.40;9.33;;;0.90;57.90;;;;;;4995792;28;20606;-75
2022/03/11 07:58:32;;;;;;;14.13;8.87;;;0.90;57.80;;;;;;4997585;28;20966;-76
2022/03/11 08:00:58;;;;;;;13.77;8.57;;;1.10;57.40;;;;;;4998928;28;20276;-75
2022/03/11 08:03:24;;;;;;;12.83;8.43;;;1.10;56.60;;;;;;4995135;28;20197;-78
2022/03/11 08:05:49;;;;;;;13.77;8.50;;;1.10;56.70;;;;;;4997129;28;20275;-78
2022/03/11 08:08:15;;;;;;;13.83;7.97;;;1.20;56.90;;;;;;4994043;28;20693;-79
2022/03/11 08:10:41;;;;;;;10.77;7.07;;;1.30;56.10;;;;;;4999231;28;20232;-78
2022/03/11 08:13:07;;;;;;;13.00;8.07;;;1.30;55.40;;;;;;4999930;28;20634;-78
2022/03/11 08:15:34;;;;;;;12.77;7.40;;;1.30;56.40;;;;;;4988606;28;20346;-78
2022/03/11 08:18:00;;;;;;;15.57;8.30;;;1.30;55.40;;;;;;4991703;28;20307;-77
2022/03/11 08:20:26;;;;;;;11.97;8.17;;;1.40;55.10;;;;;;4987779;28;20196;-78
2022/03/11 08:22:52;;;;;;;14.77;6.37;;;1.40;55.30;;;;;;4988477;28;20200;-77
2022/03/11 08:25:20;;;;;;;11.13;8.03;;;1.50;54.30;;;;;;4999549;28;20667;-79
2022/03/11 08:27:45;;;;;;;13.43;8.20;;;1.50;54.10;;;;;;5007955;28;20630;-78
2022/03/11 08:30:12;;;;;;;15.23;7.37;;;1.60;53.70;;;;;;5020008;28;20714;-78
2022/03/11 08:32:39;;;;;;;9.73;7.17;;;1.60;54.50;;;;;;5008604;28;20260;-78
2022/03/11 08:35:06;;;;;;;15.67;8.27;;;1.70;53.30;;;;;;5012780;28;20670;-77
2022/03/11 08:37:33;;;;;;;14.37;8.23;;;1.80;52.80;;;;;;5007428;28;20218;-76
2022/03/11 08:39:58;;;;;;;15.53;8.40;;;1.70;52.80;;;;;;5011218;28;20227;-76
2022/03/11 08:42:24;;;;;;;14.43;7.93;;;1.80;52.30;;;;;;5007869;28;20654;-76
2022/03/11 08:44:49;;;;;;;10.63;6.60;;;1.90;52.50;;;;;;5005583;28;20215;-75
2022/03/11 08:47:15;;;;;;;13.80;8.33;;;1.90;51.60;;;;;;5007400;28;20208;-74
2022/03/11 08:49:40;;;;;;;14.20;7.50;;;1.90;51.60;;;;;;5014395;28;20207;-74
2022/03/11 08:52:06;;;;;;;10.90;8.10;;;1.90;51.60;;;;;;5016518;28;20210;-74
2022/03/11 08:54:32;;;;;;;12.57;8.10;;;1.90;51.60;;;;;;5005352;28;20270;-75
2022/03/11 08:56:59;;;;;;;13.27;9.00;;;2.00;51.30;;;;;;5007694;28;20219;-73
2022/03/11 08:59:25;;;;;;;14.73;7.23;;;2.20;51.20;;;;;;5012819;28;20202;-73
2022/03/11 09:01:51;;;;;;;14.63;7.70;;;2.10;51.80;;;;;;5014661;28;20286;-74
2022/03/11 09:04:16;;;;;;;10.97;8.23;;;2.30;51.40;;;;;;5013275;28;20314;-75
2022/03/11 09:06:41;;;;;;;13.23;8.67;;;2.30;50.80;;;;;;5016232;28;20895;-75
2022/03/11 09:09:08;;;;;;;11.37;6.10;;;2.40;50.30;;;;;;5009167;28;20195;-78
2022/03/11 09:11:34;;;;;;;13.17;7.87;;;2.40;49.50;;;;;;5017281;28;20238;-75
2022/03/11 09:14:00;;;;;;;14.27;8.00;;;2.50;49.90;;;;;;5008673;28;20659;-77
2022/03/11 09:16:25;;;;;;;11.40;8.30;;;2.60;50.10;;;;;;5014525;28;20192;-75
2022/03/11 09:18:51;;;;;;;12.80;8.10;;;2.80;49.90;;;;;;5007653;28;21129;-76
2022/03/11 09:21:16;;;;;;;10.07;6.57;;;2.80;50.10;;;;;;5019623;28;20183;-75
2022/03/11 09:23:43;;;;;;;15.30;7.70;;;2.90;49.20;;;;;;5006781;28;20218;-76
2022/03/11 09:26:08;;;;;;;11.47;7.93;;;3.00;48.90;;;;;;5024375;28;20285;-76
2022/03/11 09:28:34;;;;;;;15.70;8.87;;;3.00;48.30;;;;;;5018782;28;20192;-75
2022/03/11 09:31:01;;;;;;;10.93;7.20;;;3.00;48.80;;;;;;5000541;28;20192;-75
2022/03/11 09:33:27;;;;;;;9.67;7.13;;;3.00;48.90;;;;;;5011685;28;20227;-76
2022/03/11 09:35:53;;;;;;;14.23;8.03;;;3.00;48.90;;;;;;5012443;28;20196;-76
2022/03/11 09:38:18;;;;;;;10.03;6.63;;;3.10;49.00;;;;;;5006522;28;20580;-74
2022/03/11 09:40:45;;;;;;;12.53;8.33;;;3.20;47.80;;;;;;5015358;28;20304;-74
2022/03/11 09:43:15;;;;;;;16.80;7.97;;;3.20;48.00;;;;;;5006402;28;20275;-73
2022/03/11 09:45:41;;;;;;;14.23;8.47;;;3.40;48.00;;;;;;5015479;28;20331;-73
2022/03/11 09:48:07;;;;;;;10.10;7.23;;;3.30;48.00;;;;;;5006102;28;20608;-75
2022/03/11 09:50:33;;;;;;;10.57;8.07;;;3.30;47.70;;;;;;5015135;28;20894;-74
2022/03/11 09:53:00;;;;;;;11.57;7.40;;;3.30;47.70;;;;;;5006176;28;20666;-74
2022/03/11 09:55:25;;;;;;;13.93;7.50;;;3.40;47.80;;;;;;5018963;28;20302;-74
2022/03/11 09:57:51;;;;;;;12.93;8.17;;;3.50;46.60;;;;;;5006274;28;20753;-74
2022/03/11 10:00:17;;;;;;;13.70;7.80;;;3.60;47.00;;;;;;5015223;28;20208;-74
2022/03/11 10:02:46;;;;;;;12.47;7.57;;;3.60;46.80;;;;;;5005962;28;20196;-73
2022/03/11 10:05:12;;;;;;;14.10;7.23;;;3.80;47.20;;;;;;5017542;28;20253;-74
2022/03/11 10:07:37;;;;;;;12.03;8.33;;;3.80;46.70;;;;;;5016554;28;20203;-74
2022/03/11 10:10:17;;;;;;;13.93;8.67;;;3.80;47.40;;;;;;5006893;28;20219;-83
2022/03/11 10:12:46;;;;;;;14.27;8.30;;;3.90;47.30;;;;;;5016355;28;20654;-79
2022/03/11 10:15:13;;;;;;;9.93;7.13;;;3.90;47.40;;;;;;5007657;28;20266;-77
2022/03/11 10:17:44;;;;;;;13.40;8.10;;;4.10;46.50;;;;;;5012423;28;20732;-71
2022/03/11 10:20:16;;;;;;;12.97;8.03;;;4.20;46.20;;;;;;4996093;28;20215;-78
2022/03/11 10:22:44;;;;;;;13.70;7.97;;;4.30;46.20;;;;;;5008240;28;20203;-80
2022/03/11 10:25:20;;;;;;;13.27;7.80;;;4.30;46.50;;;;;;5013803;28;20212;-76
2022/03/11 10:28:05;;;;;;;13.43;8.80;;;4.30;46.10;;;;;;5009241;28;20201;-78
2022/03/11 10:30:33;;;;;;;14.17;8.33;;;4.20;45.40;;;;;;5004313;28;20195;-80
2022/03/11 10:33:07;;;;;;;13.50;9.13;;;4.30;45.90;;;;;;5019556;28;20212;-86
2022/03/11 10:35:36;;;;;;;14.23;7.87;;;4.50;45.20;;;;;;5025422;28;20183;-85
2022/03/11 10:38:10;;;;;;;14.77;7.37;;;4.60;45.00;;;;;;5004826;28;20705;-85
2022/03/11 10:40:42;;;;;;;11.10;7.47;;;4.70;45.10;;;;;;5026426;28;20255;-81
2022/03/11 10:43:28;;;;;;;10.80;7.60;;;4.70;44.90;;;;;;5021958;28;20201;-87
2022/03/11 10:46:13;;;;;;;11.43;7.13;;;4.90;44.90;;;;;;5018789;28;20188;-89
2022/03/11 10:48:47;;;;;;;16.73;8.70;;;4.90;44.20;;;;;;5003060;28;20208;-86
2022/03/11 10:51:27;;;;;;;8.93;7.13;;;5.20;44.70;;;;;;5013613;28;20600;-83
2022/03/11 10:53:55;;;;;;;13.80;7.07;;;5.30;43.20;;;;;;5001268;28;20247;-83
2022/03/11 10:56:40;;;;;;;13.13;7.47;;;5.40;42.40;;;;;;5007321;28;20192;-84
2022/03/11 10:59:13;;;;;;;11.20;7.47;;;5.40;41.80;;;;;;5004439;28;20270;-79
2022/03/11 11:01:41;;;;;;;14.60;8.27;;;5.60;42.80;;;;;;5022066;28;20796;-82
2022/03/11 11:04:09;;;;;;;12.07;8.37;;;5.80;42.70;;;;;;5017607;28;20678;-83
2022/03/11 11:06:36;;;;;;;12.97;7.40;;;6.10;43.20;;;;;;5020290;28;20644;-74
2022/03/11 11:09:03;;;;;;;10.67;6.90;;;6.30;41.70;;;;;;5010510;28;20692;-78
2022/03/11 11:11:29;;;;;;;11.93;7.17;;;6.40;40.60;;;;;;5021873;28;20222;-79
2022/03/11 11:13:55;;;;;;;10.80;6.93;;;6.50;40.50;;;;;;5013269;28;20234;-74
2022/03/11 11:16:26;;;;;;;9.67;6.70;;;6.60;40.30;;;;;;5004938;28;20202;-73
2022/03/11 11:18:59;;;;;;;10.43;7.10;;;6.80;40.50;;;;;;5020602;28;20203;-70
2022/03/11 11:21:26;;;;;;;10.87;7.23;;;7.10;40.50;;;;;;5015086;28;20196;-69
2022/03/11 11:23:56;;;;;;;11.70;7.17;;;7.00;39.80;;;;;;5015953;28;20683;-70
2022/03/11 11:26:23;;;;;;;10.50;6.60;;;7.00;38.90;;;;;;5004950;28;20641;-70
2022/03/11 11:28:52;;;;;;;9.20;6.70;;;7.10;38.80;;;;;;5019769;28;20204;-65
2022/03/11 11:31:20;;;;;;;7.97;6.47;;;7.10;38.90;;;;;;5000742;28;20184;-68
2022/03/11 11:33:47;;;;;;;14.37;7.73;;;7.10;37.70;;;;;;5005730;28;20204;-68
2022/03/11 11:36:13;;;;;;;11.07;7.00;;;7.30;38.40;;;;;;5016214;28;20199;-68
2022/03/11 11:38:42;;;;;;;12.97;5.60;;;7.50;38.00;;;;;;4992103;28;20262;-66
2022/03/11 11:41:25;;;;;;;9.53;6.23;;;7.60;37.00;;;;;;5014803;28;20258;-67
2022/03/11 11:43:57;;;;;;;10.33;6.67;;;7.50;36.90;;;;;;5015928;28;20210;-69
2022/03/11 11:46:23;;;;;;;10.37;6.87;;;7.70;36.70;;;;;;5013734;28;20195;-69
2022/03/11 11:48:48;;;;;;;12.40;6.53;;;8.00;37.30;;;;;;5017409;28;21016;-67
2022/03/11 11:51:20;;;;;;;10.23;5.70;;;8.40;37.30;;;;;;5009850;28;20195;-68
2022/03/11 11:53:45;;;;;;;10.93;7.07;;;8.80;37.50;;;;;;5017338;28;20221;-67
2022/03/11 11:56:32;;;;;;;10.30;6.87;;;8.90;35.70;;;;;;5005601;28;20294;-71
2022/03/11 11:59:03;;;;;;;13.47;6.53;;;8.70;35.30;;;;;;5018190;28;20229;-72
2022/03/11 12:01:46;;;;;;;8.93;6.47;;;8.70;35.30;;;;;;5011309;28;20196;-72
2022/03/11 12:04:32;;;;;;;10.43;6.73;;;9.10;36.70;;;;;;5024312;28;20196;-71
2022/03/11 12:07:17;;;;;;;9.80;6.80;;;9.10;35.00;;;;;;5008018;28;20237;-71
2022/03/11 12:09:57;;;;;;;8.03;6.47;;;9.40;35.50;;;;;;5023589;28;21186;-71
2022/03/11 12:12:28;;;;;;;15.50;8.10;;;9.40;35.10;;;;;;5011740;28;20197;-70
2022/03/11 12:15:00;;;;;;;10.63;6.83;;;9.60;35.20;;;;;;5020256;28;20200;-72
2022/03/11 12:17:39;;;;;;;8.57;6.07;;;9.70;34.70;;;;;;5010254;28;20225;-75
2022/03/11 12:20:34;;;;;;;13.03;6.60;;;9.90;34.80;;;;;;5015205;28;20284;-76
2022/03/11 12:23:08;;;;;;;10.10;5.93;;;10.10;32.90;;;;;;5006083;28;20188;-76
2022/03/11 12:25:37;;;;;;;10.13;6.37;;;10.10;33.30;;;;;;5018622;28;20239;-77
2022/03/11 12:28:19;;;;;;;10.93;5.97;;;9.90;32.50;;;;;;5009955;28;20181;-74
2022/03/11 12:30:47;;;;;;;13.63;6.57;;;10.20;32.20;;;;;;4999392;28;20258;-74
2022/03/11 12:33:23;;;;;;;7.27;5.83;;;10.70;31.40;;;;;;5026672;28;20243;-74
2022/03/11 12:35:56;;;;;;;7.67;5.43;;;10.50;30.00;;;;;;4998665;28;20670;-74
2022/03/11 12:38:24;;;;;;;9.60;4.63;;;10.70;29.30;;;;;;5008925;28;20217;-73
2022/03/11 12:40:50;;;;;;;6.97;4.97;;;10.80;29.30;;;;;;5016298;28;20693;-75
2022/03/11 12:43:17;;;;;;;9.73;5.63;;;11.10;29.20;;;;;;5007179;28;20588;-73
2022/03/11 12:45:54;;;;;;;6.67;5.30;;;11.30;29.20;;;;;;5013298;28;20207;-73